• Join FlightAware (Why Join?)
  • Login
  • US Flag 
05:24AM EDT


 

Airport Tracker/Info


-or-


 

Live Flight TrackerFlight Track Log ✈ JZA7902 ✈ 16-May-2012 ✈ KCLE - CYYZ

Flight Track Log - Related Links

Times and Time Zones

All times are in EDT time to prevent confusion due to time zone crossing. See the JZA7902 flight status page for this flight to view local times or setup timezone preferences in your user account.

Time Position Orientation Groundspeed Altitude Reporting Facility
EDT Latitude Longitude Course Direction KTS MPH feet Rate Location/Type
06:40AM 41.4003 -81.8675 261° West 112 129 1,900  Level Cleveland Center
06:41AM 41.3958 -81.9033 337° Northwest 130 150 3,100 1,560 Climbing Cleveland Center
06:42AM 41.4164 -81.9150 12° North 140 161 4,300 1,080 Climbing Cleveland Center
06:43AM 41.4792 -81.8969 50° Northeast 174 200 5,300 1,080 Climbing Cleveland Center
06:44AM 41.5175 -81.8367 46° Northeast 186 214 6,900 1,440 Climbing Cleveland Center
06:45AM 41.5575 -81.7819 44° Northeast 199 229 8,200 1,200 Climbing Cleveland Center
06:46AM 41.6000 -81.7272 43° Northeast 204 235 9,400 1,080 Climbing Cleveland Center
06:47AM 41.6400 -81.6778 45° Northeast 204 235 10,400 1,080 Climbing Cleveland Center
06:48AM 41.6822 -81.6203 42° Northeast 204 235 11,600 1,140 Climbing Cleveland Center
06:49AM 41.7306 -81.5625 47° Northeast 212 244 12,700 1,140 Climbing Cleveland Center
06:50AM 41.7750 -81.4992 21° North 227 261 13,900 1,140 Climbing Cleveland Center
06:51AM 41.8272 -81.4719 10° North 208 239 15,000 540 Climbing Cleveland Center
06:52AM 41.8942 -81.4561 11° North 220 253 15,000  Level Cleveland Center
06:53AM 41.9714 -81.4350 11° North 243 280 15,000  Level Cleveland Center
06:54AM 42.0444 -81.4164 10° North 262 302 15,100  Climbing Cleveland Center
06:55AM 42.1197 -81.3978 12° North 267 307 15,100  Level Cleveland Center
06:56AM 42.1969 -81.3764 11° North 272 313 15,100 -60 Level Cleveland Center
06:57AM 42.2722 -81.3575 12° North 278 320 15,000  Descending Cleveland Center
06:58AM 42.3494 -81.3361 11° North 278 320 15,100  Climbing Cleveland Center
06:59AM 42.4244 -81.3172 12° North 278 320 15,100 -60 Level Cleveland Center
07:00AM 42.5017 -81.2956 10° North 278 320 15,000 -60 Descending Cleveland Center
07:01AM 42.5769 -81.2767 15° North 278 320 15,000  Level Cleveland Center
07:02AM 42.6458 -81.2522 North 278 320 15,000 -360 Level Cleveland Center
07:03AM 42.7231 -81.2361 24° Northeast 278 320 14,300 -900 Descending Cleveland Center
07:04AM 42.8003 -81.1886 50° Northeast 286 329 13,300 -780 Descending Cleveland Center
07:06AM 42.9167 -81.0000 50° Northeast 330 380 12,100 -660 Descending Toronto Center